This is the latest recevied weather packets stored in our database for station/object MB7IWY-13. If no packets are shown the sender has not sent any weather packets the latest 10 day(s).
| Time | Temp. | Humidity | Pressure | Rain* | Wind** | Luminosity | Snow |
|---|---|---|---|---|---|---|---|
| 1777890421 | 8.89° C | 88% | 1037.9 hPa | 0 mm | - | 0 W/m² | - |
| 1777888441 | 8.33° C | 91% | 1037.9 hPa | 0 mm | - | 0 W/m² | - |
| 1777885741 | 7.78° C | 94% | 1037.9 hPa | 0 mm | - | 0 W/m² | - |
| 1777877641 | 6.67° C | 96% | 1036.9 hPa | 0 mm | - | 0 W/m² | - |
| 1777877101 | 6.67° C | 96% | 1036.9 hPa | 0 mm | - | 0 W/m² | - |
| 1777876582 | 6.67° C | 96% | 1036.9 hPa | 0 mm | - | 0 W/m² | - |
| 1777876021 | 6.67° C | 97% | 1036.9 hPa | 0 mm | - | 0 W/m² | - |
| 1777875481 | 6.67° C | 97% | 1036.9 hPa | 0 mm | - | 0 W/m² | - |
| 1777874401 | 6.67° C | 96% | 1035.9 hPa | 0 mm | - | 0 W/m² | - |
| 1777872421 | 7.22° C | 95% | 1035.9 hPa | 0 mm | - | 0 W/m² | - |
| 1777870441 | 7.22° C | 95% | 1035.9 hPa | 0 mm | - | 0 W/m² | - |
| 1777867201 | 7.22° C | 96% | 1035.9 hPa | 0 mm | - | 0 W/m² | - |
| 1777864681 | 7.22° C | 96% | 1035.9 hPa | 0 mm | - | 0 W/m² | - |
| 1777859641 | 7.22° C | 97% | 1035.9 hPa | 0 mm | - | 0 W/m² | - |
| 1777853341 | 7.78° C | 96% | 1034.9 hPa | 0 mm | - | 0 W/m² | - |
| 1777852801 | 7.78° C | 97% | 1034.9 hPa | 0 mm | - | 0 W/m² | - |
| 1777851901 | 7.78° C | 97% | 1034.9 hPa | 0 mm | - | 0 W/m² | - |
| 1777848841 | 7.78° C | 97% | 1034.9 hPa | 0 mm | - | 0 W/m² | - |
| 1777848301 | 7.78° C | 97% | 1034.9 hPa | 0 mm | - | 0 W/m² | - |
| 1777843621 | 8.33° C | 95% | 1033.8 hPa | 0 mm | - | 0 W/m² | - |
| 1777842541 | 8.33° C | 95% | 1033.8 hPa | 0 mm | - | 0 W/m² | - |
| 1777840561 | 8.33° C | 96% | 1033.8 hPa | 0 mm | - | 0 W/m² | - |
| 1777838401 | 8.33° C | 97% | 1032.8 hPa | 0.51 mm | - | 0 W/m² | - |
| 1777836982 | 8.33° C | 97% | 1032.8 hPa | 0.51 mm | - | 0 W/m² | - |
| 1777834441 | 8.89° C | 97% | 1032.8 hPa | 0.51 mm | - | 0 W/m² | - |
* Rain latest hour (hover to see other rain measurements)
** Current wind speed in m/s (hover to see current wind gust speed)